Alamo, Nevada Weather observations

Data are for observation ending at time listed.
 Day   Time    Ave.   Ave.  Ave.  Vector   Max.   Stn.    Total    Solar   Ave.  
  of    of     Air    Rel.  Wind   Wind    Wind   Baro.  Precip.   Rad.    Soil  
Year   Day     Temp.  Hum.  Speed  Dir.    Gust   Pres.                    Temp. 
2016   (PST)    F      %     mph   deg.    mph     mb.     in.     W/m2     F   
------------------------------------------------------------------------------
 239    0:00   60.8    58    0.7    28      1.7   896.1    0.00       0    73.1
 239    0:10   60.2    59    0.6    32      1.6   896.2    0.00       0    72.8
 239    0:20   59.6    61    0.8    47      1.8   896.5    0.00       0    72.6
 239    0:30   59.4    60    0.8    28      2.0   896.5    0.00       0    72.4
 239    0:40   59.9    56    1.1    24      2.1   896.2    0.00       0    72.2
 239    0:50   59.7    56    1.2    51      2.3   896.7    0.00       0    72.1
 239    1:00   59.3    56    1.5    51      2.3   896.7    0.00       0    71.9
 239    1:10   59.0    58    0.1   354      0.7   897.1    0.00       0    71.7
 239    1:20   58.6    60    0.6    14      1.5   896.7    0.00       0    71.5
 239    1:30   58.1    61    0.5    10      1.5   896.9    0.00       0    71.3
 239    1:40   57.8    62    0.0    56      0.6   896.8    0.00       0    71.1
 239    1:50   57.3    63    0.0     0      0.0   897.0    0.00       0    71.0
 239    2:00   57.1    64    0.1     6      0.6   897.0    0.00       0    70.8
 239    2:10   56.8    65    0.0    22      0.6   897.2    0.00       0    70.6
 239    2:20   56.7    65    0.9    40      2.3   897.6    0.00       0    70.5
 239    2:30   56.7    65    0.8     1      1.6   896.7    0.00       0    70.3
 239    2:40   56.6    66    0.6    14      1.3   898.0    0.00       0    70.1
 239    2:50   55.9    67    0.3    31      1.2   897.9    0.00       0    70.0
 239    3:00   55.5    68    0.6    21      1.1   897.5    0.00       0    69.8
 239    3:10   55.2    67    0.2    21      1.3   897.1    0.00       0    69.7
 239    3:20   55.1    67    0.2    12      1.0   897.1    0.00       0    69.5
 239    3:30   54.7    69    0.2    62      1.3   896.8    0.00       0    69.3
 239    3:40   54.5    69    0.1   330      0.9   897.2    0.00       0    69.2
 239    3:50   54.4    70    0.6    18      1.5   898.0    0.00       0    69.1
 239    4:00   54.0    70    1.0    13      1.7   898.2    0.00       0    68.9
 239    4:10   54.1    69    0.6    17      1.5   897.8    0.00       0    68.8
 239    4:20   53.9    70    0.5    28      1.2   897.5    0.00       0    68.6
 239    4:30   53.5    72    0.4    46      1.7   897.5    0.00       0    68.5
 239    4:40   53.6    72    0.2   333      1.1   897.4    0.00       0    68.4
 239    4:50   53.7    71    0.7    20      1.7   897.7    0.00       0    68.2
 239    5:00   53.3    71    0.5    29      1.4   898.0    0.00       0    68.1
 239    5:10   53.3    72    0.6    15      1.3   898.1    0.00       0    68.0
 239    5:20   53.2    72    0.4    42      1.1   897.8    0.00       2    67.9
 239    5:30   52.8    73    0.1   330      0.7   897.9    0.00      12    67.7
 239    5:40   53.1    73    0.1    59      1.2   898.0    0.00      15    67.6
 239    5:50   53.4    71    0.8    38      1.4   898.1    0.00      26    67.6
 239    6:00   55.3    68    0.5    16      1.1   898.2    0.00      33    67.5
 239    6:10   57.8    62    0.2   333      0.7   898.2    0.00      38    67.4
 239    6:20   59.3    58    1.1   292      2.2   898.1    0.00      41    67.4
 239    6:30   60.4    56    0.4   210      1.7   898.2    0.00      95    67.5
 239    6:40   62.1    54    0.4    68      1.8   898.3    0.00      56    67.6
 239    6:50   61.8    56    1.4    49      2.9   898.3    0.00      60    67.7
 239    7:00   62.2    56    1.8    26      2.9   898.4    0.00      56    67.8
 239    7:10   62.7    56    1.8    21      2.9   898.4    0.00      54    67.9
 239    7:20   64.3    54    1.5     6      2.6   898.4    0.00      54    68.0
 239    7:30   65.7    52    1.5    11      2.6   898.4    0.00      54    68.2
 239    7:40   67.2    49    0.8     7      1.9   898.4    0.00      55    68.3
 239    7:50   69.0    45    0.9    15      2.7   898.3    0.00      60    68.4
 239    8:00   70.4    40    1.4   359      3.1   898.3    0.00      61    68.6
 239    8:10   71.4    40    0.8    20      1.9   898.3    0.00      62    68.8
 239    8:20   72.6    40    0.3    15      1.8   898.3    0.00      66    68.9
 239    8:30   73.5    38    0.7   208      2.7   898.3    0.00      67    69.1
 239    8:40   74.6    39    1.7   198      4.0   898.3    0.00      67    69.3
 239    8:50   75.7    38    1.9   185      5.0   898.3    0.00      67    69.5
 239    9:00   76.7    39    1.9   181      7.3   898.2    0.00      69    69.7
 239    9:10   77.4    38    2.8   181      8.8   898.2    0.00      69    69.9
 239    9:20   78.2    37    1.7   172      5.9   899.2    0.00     119    70.2
 239    9:30   78.7    36    2.8   184      8.3   899.0    0.00      87    70.4
 239    9:40   79.1    36    3.2   184      7.5   899.4    0.00      81    70.7
 239    9:50   80.0    35    1.8   176      6.6   899.0    0.00      79    71.0
 239   10:00   81.2    33    1.2   150      3.9   899.5    0.00      80    71.2
 239   10:10   81.5    32    1.8   161      5.6   899.4    0.00      81    71.5
 239   10:20   82.0    32    1.6   178      8.6   897.9    0.00      81    71.8
 239   10:30   82.2    30    1.8   147      6.0   897.4    0.00      81    72.1
 239   10:40   82.8    30    1.4   152      5.1   897.4    0.00      84    72.4
 239   10:50   83.3    30    1.8   156      7.1   897.1    0.00      84    72.7
 239   11:00   84.0    28    1.1   154      4.4   897.9    0.00      86    73.1
 239   11:10   84.3    28    2.3   179      8.7   897.4    0.00     142    73.6
 239   11:20   84.8    27    1.9   163      7.7   897.4    0.00     123    74.2
 239   11:30   85.6    26    1.8   165      6.0   897.1    0.00     119    75.0
 239   11:40   85.9    26    2.0   164      7.2   897.0    0.00     143    75.7
 239   11:50   86.7    25    1.7   149      8.0   896.6    0.00     784    76.4
 239   12:00   87.0    25    2.3   172      7.3   896.4    0.00    1030    77.2
 239   12:10   88.1    24    2.0   171      8.3   896.5    0.00    1034    78.4
 239   12:20   88.3    24    1.6   171      6.9   895.7    0.00    1033    79.8
 239   12:30   88.9    22    1.5   143      6.8   896.7    0.00    1031    81.3
 239   12:40   89.1    23    1.6   159      8.4   895.5    0.00    1029    82.8
 239   12:50   89.0    23    2.4   179     10.7   895.5    0.00    1034    84.2
 239   13:00   88.8    22    1.9   152      6.9   895.1    0.00    1030    85.5
 239   13:10   89.2    22    1.5   156      5.6   894.9    0.00    1033    86.6
 239   13:20   89.6    23    2.5   173      8.6   894.8    0.00    1016    87.7
 239   13:30   89.5    23    3.2   183      9.7   894.7    0.00     992    88.6
 239   13:40   89.7    22    1.8   174     11.0   894.7    0.00     967    89.5
 239   13:50   90.1    22    2.4   172      8.3   894.6    0.00     950    90.2
 239   14:00   90.7    20    1.2   174      5.0   894.4    0.00     934    90.9
 239   14:10   90.5    20    1.8   158      6.9   894.3    0.00     929    91.6
 239   14:20   89.5    20    2.9   171     12.4   894.3    0.00     683    92.2
 239   14:30   89.4    21    2.0   169      8.6   894.3    0.00     875    92.6
 239   14:40   90.5    21    2.0   166      8.9   894.2    0.00     862    92.9
 239   14:50   89.8    21    2.9   179     11.8   894.2    0.00     810    93.2
 239   15:00   88.5    20    1.8   159      5.7   894.1    0.00     346    93.5
 239   15:10   86.2    21    1.7   160      5.0   894.1    0.00     229    93.6
 239   15:20   86.9    21    2.2   174      7.6   894.1    0.00     418    93.2
 239   15:30   87.7    20    1.4   157      5.8   894.0    0.00     340    92.6
 239   15:40   86.8    20    1.4   159      5.2   894.1    0.00     321    92.1
 239   15:50   86.8    20    1.2   178      7.2   894.1    0.00     221    91.7
 239   16:00   86.7    20    0.8   139      2.9   894.3    0.00     266    91.2
 239   16:10   87.3    20    1.6   341      4.9   894.5    0.00     465    90.7
 239   16:20   87.2    20    3.5   330      6.3   894.4    0.00     410    90.2
 239   16:30   86.4    21    3.1    35      5.9   894.1    0.00     438    89.8
 239   16:40   86.9    21    2.9   314      5.6   893.9    0.00     300    89.3
 239   16:50   87.9    20    2.5   269      8.0   893.8    0.00     337    88.8
 239   17:00   87.1    21    1.3   192      5.6   893.8    0.00     297    88.3
 239   17:10   86.9    20    1.2   168      4.2   893.7    0.00     255    87.8
 239   17:20   86.5    20    1.0   142      4.3   893.6    0.00     204    87.3
 239   17:30   85.9    21    1.0   172      3.8   893.6    0.00     129    86.8
 239   17:40   85.1    21    1.1   176      6.4   893.6    0.00     102    86.4
 239   17:50   84.6    22    1.2   165      5.8   893.6    0.00      44    85.9
 239   18:00   83.9    22    1.2   170      4.2   893.7    0.00      35    85.5
 239   18:10   83.6    22    1.2   171      4.8   893.8    0.00      20    85.0
 239   18:20   83.0    23    1.1   178      5.3   893.9    0.00      11    84.6
 239   18:30   82.8    23    0.9   177      2.3   893.9    0.00       3    84.2
 239   18:40   82.5    23    0.8   187      3.8   894.0    0.00       0    83.8
 239   18:50   81.9    24    0.9   198      4.3   894.1    0.00       0    83.4
 239   19:00   81.2    25    0.7   186      3.3   894.2    0.00       0    83.0
 239   19:10   80.5    26    0.8   192      2.6   894.2    0.00       0    82.7
 239   19:20   79.1    28    1.2   200      3.3   894.3    0.00       0    82.3
 239   19:30   78.1    30    0.6   213      1.8   894.5    0.00       0    82.0
 239   19:40   76.9    31    0.8   210      1.6   894.7    0.00       0    81.7
 239   19:50   76.1    32    0.5   212      1.2   894.7    0.00       0    81.4
 239   20:00   75.7    32    0.1   208      1.3   894.9    0.00       0    81.1
 239   20:10   75.6    32    0.5   221      1.5   894.8    0.00       0    80.8
 239   20:20   76.3    30    1.1   210      2.7   894.9    0.00       0    80.5
 239   20:30   76.3    31    1.0   207      2.0   895.0    0.00       0    80.3
 239   20:40   75.4    32    0.6   195      2.0   895.1    0.00       0    80.0
 239   20:50   75.1    33    0.7   213      3.0   895.2    0.00       0    79.8
 239   21:00   75.5    32    1.0   204      3.7   895.2    0.00       0    79.6
 239   21:10   76.8    30    0.4   136      1.4   895.2    0.00       0    79.4
 239   21:20   78.4    28    0.5   138      2.6   895.2    0.00       0    79.2
 239   21:30   77.9    30    1.5   210      3.2   895.2    0.00       0    79.0
 239   21:40   76.4    32    1.1   211      2.9   895.3    0.00       0    78.8
 239   21:50   77.0    31    0.5   114      2.3   895.3    0.00       0    78.7
 239   22:00   78.1    30    0.4   170      2.3   895.5    0.00       0    78.6
 239   22:10   78.1    30    0.3   105      1.4   895.6    0.00       0    78.4
 239   22:20   77.7    31    0.3   155      2.5   895.7    0.00       0    78.3
 239   22:30   77.2    32    0.3    94      2.6   895.8    0.00       0    78.2
 239   22:40   77.0    32    0.7    82      2.3   895.9    0.00       0    78.1
 239   22:50   76.2    34    0.5   203      2.0   896.1    0.00       0    78.0
 239   23:00   76.1    34    3.3   346      6.9   896.4    0.00       0    77.9
 239   23:10   75.7    33    3.9     5     12.0   896.7    0.00       0    77.8
 239   23:20   76.2    30    2.2    19      5.6   896.8    0.00       0    77.8

Return to Alamo, Nevada graphs page.


Western Regional Climate Center,wrcc@dri.edu